sensor_id;sensor_type;location;lat;lon;timestamp;pressure;altitude;pressure_sealevel;temperature;humidity
74125;BME280;62475;52.192;5.396;2022-08-19T00:00:38;101456.00;;;17.77;92.58
74125;BME280;62475;52.192;5.396;2022-08-19T00:03:04;101456.66;;;17.82;93.03
74125;BME280;62475;52.192;5.396;2022-08-19T00:05:29;101469.22;;;17.88;93.45
74125;BME280;62475;52.192;5.396;2022-08-19T00:07:55;101451.09;;;17.74;93.90
74125;BME280;62475;52.192;5.396;2022-08-19T00:10:21;101468.72;;;17.69;93.69
74125;BME280;62475;52.192;5.396;2022-08-19T00:12:46;101471.00;;;17.50;95.16
74125;BME280;62475;52.192;5.396;2022-08-19T00:15:16;101476.19;;;17.43;95.69
74125;BME280;62475;52.192;5.396;2022-08-19T00:17:43;101459.34;;;17.40;95.65
74125;BME280;62475;52.192;5.396;2022-08-19T00:20:12;101472.28;;;17.44;96.30
74125;BME280;62475;52.192;5.396;2022-08-19T00:22:38;101475.91;;;17.53;95.79
74125;BME280;62475;52.192;5.396;2022-08-19T00:25:05;101468.41;;;17.62;94.97
74125;BME280;62475;52.192;5.396;2022-08-19T00:27:30;101473.63;;;17.64;94.94
74125;BME280;62475;52.192;5.396;2022-08-19T00:29:56;101465.59;;;17.54;95.30
74125;BME280;62475;52.192;5.396;2022-08-19T00:32:21;101436.28;;;17.31;96.15
74125;BME280;62475;52.192;5.396;2022-08-19T00:34:47;101459.34;;;17.40;96.24
74125;BME280;62475;52.192;5.396;2022-08-19T00:37:12;101457.72;;;17.39;96.86
74125;BME280;62475;52.192;5.396;2022-08-19T00:39:37;101456.72;;;17.35;96.37
74125;BME280;62475;52.192;5.396;2022-08-19T00:42:03;101453.78;;;17.23;96.91
74125;BME280;62475;52.192;5.396;2022-08-19T00:44:29;101461.44;;;17.26;97.64
74125;BME280;62475;52.192;5.396;2022-08-19T00:46:57;101445.25;;;17.19;97.87
74125;BME280;62475;52.192;5.396;2022-08-19T00:49:27;101459.81;;;17.25;97.63
74125;BME280;62475;52.192;5.396;2022-08-19T00:52:04;101465.88;;;17.27;97.48
74125;BME280;62475;52.192;5.396;2022-08-19T00:54:30;101453.13;;;17.26;97.41
74125;BME280;62475;52.192;5.396;2022-08-19T00:56:58;101457.03;;;17.25;97.22
74125;BME280;62475;52.192;5.396;2022-08-19T00:59:24;101460.81;;;17.29;97.31
74125;BME280;62475;52.192;5.396;2022-08-19T01:01:50;101470.94;;;17.33;97.02
74125;BME280;62475;52.192;5.396;2022-08-19T01:04:16;101460.00;;;17.37;96.96
74125;BME280;62475;52.192;5.396;2022-08-19T01:06:41;101459.84;;;17.42;95.35
74125;BME280;62475;52.192;5.396;2022-08-19T01:09:07;101453.44;;;17.33;95.64
74125;BME280;62475;52.192;5.396;2022-08-19T01:11:35;101459.50;;;17.35;95.85
74125;BME280;62475;52.192;5.396;2022-08-19T01:14:01;101459.84;;;17.33;95.78
74125;BME280;62475;52.192;5.396;2022-08-19T01:16:28;101457.72;;;17.39;95.92
74125;BME280;62475;52.192;5.396;2022-08-19T01:18:55;101457.72;;;17.39;95.61
74125;BME280;62475;52.192;5.396;2022-08-19T01:21:37;101460.50;;;17.39;95.91
74125;BME280;62475;52.192;5.396;2022-08-19T01:24:05;101453.13;;;17.26;96.64
74125;BME280;62475;52.192;5.396;2022-08-19T01:26:30;101452.63;;;17.24;96.41
74125;BME280;62475;52.192;5.396;2022-08-19T01:28:57;101453.59;;;17.19;96.98
74125;BME280;62475;52.192;5.396;2022-08-19T01:31:26;101442.00;;;17.17;97.77
74125;BME280;62475;52.192;5.396;2022-08-19T01:33:56;101461.41;;;17.09;98.35
74125;BME280;62475;52.192;5.396;2022-08-19T01:36:25;101454.06;;;17.04;98.65
74125;BME280;62475;52.192;5.396;2022-08-19T01:38:51;101448.47;;;16.95;98.69
74125;BME280;62475;52.192;5.396;2022-08-19T01:41:17;101457.94;;;16.94;98.56
74125;BME280;62475;52.192;5.396;2022-08-19T01:43:43;101460.03;;;16.89;99.02
74125;BME280;62475;52.192;5.396;2022-08-19T01:46:09;101465.91;;;16.87;98.87
74125;BME280;62475;52.192;5.396;2022-08-19T01:48:38;101458.59;;;16.91;98.13
74125;BME280;62475;52.192;5.396;2022-08-19T01:51:05;101463.44;;;16.86;98.43
74125;BME280;62475;52.192;5.396;2022-08-19T01:53:30;101427.44;;;16.55;99.17
74125;BME280;62475;52.192;5.396;2022-08-19T01:55:56;101459.81;;;16.77;99.50
74125;BME280;62475;52.192;5.396;2022-08-19T01:58:27;101461.50;;;16.86;98.70
74125;BME280;62475;52.192;5.396;2022-08-19T02:00:55;101470.50;;;16.92;98.11
74125;BME280;62475;52.192;5.396;2022-08-19T02:03:20;101463.81;;;16.93;98.09
74125;BME280;62475;52.192;5.396;2022-08-19T02:05:45;101454.22;;;16.99;97.02
74125;BME280;62475;52.192;5.396;2022-08-19T02:08:11;101463.31;;;16.91;97.89
74125;BME280;62475;52.192;5.396;2022-08-19T02:10:42;101455.41;;;16.76;98.41
74125;BME280;62475;52.192;5.396;2022-08-19T02:13:08;101453.31;;;16.81;98.13
74125;BME280;62475;52.192;5.396;2022-08-19T02:15:34;101459.56;;;16.87;97.33
74125;BME280;62475;52.192;5.396;2022-08-19T02:17:59;101460.66;;;16.77;97.84
74125;BME280;62475;52.192;5.396;2022-08-19T02:20:24;101465.91;;;16.87;97.39
74125;BME280;62475;52.192;5.396;2022-08-19T02:22:49;101474.88;;;16.84;97.12
74125;BME280;62475;52.192;5.396;2022-08-19T02:25:15;101461.19;;;16.88;96.96
74125;BME280;62475;52.192;5.396;2022-08-19T02:27:41;101452.69;;;16.93;96.53
74125;BME280;62475;52.192;5.396;2022-08-19T02:30:11;101451.13;;;16.70;97.72
74125;BME280;62475;52.192;5.396;2022-08-19T02:32:36;101463.78;;;16.84;97.09
74125;BME280;62475;52.192;5.396;2022-08-19T02:35:02;101472.03;;;16.67;97.78
74125;BME280;62475;52.192;5.396;2022-08-19T02:37:28;101471.81;;;16.55;99.39
74125;BME280;62475;52.192;5.396;2022-08-19T02:40:12;101478.28;;;16.51;100.00
74125;BME280;62475;52.192;5.396;2022-08-19T02:42:37;101479.53;;;16.67;98.68
74125;BME280;62475;52.192;5.396;2022-08-19T02:45:03;101454.03;;;16.56;98.24
74125;BME280;62475;52.192;5.396;2022-08-19T02:47:30;101489.03;;;16.74;97.60
74125;BME280;62475;52.192;5.396;2022-08-19T02:49:56;101485.75;;;16.72;97.33
74125;BME280;62475;52.192;5.396;2022-08-19T02:52:21;101499.34;;;16.82;96.89
74125;BME280;62475;52.192;5.396;2022-08-19T02:54:48;101481.56;;;16.83;97.00
74125;BME280;62475;52.192;5.396;2022-08-19T02:57:13;101469.78;;;16.78;97.27
74125;BME280;62475;52.192;5.396;2022-08-19T02:59:39;101468.00;;;16.82;96.93
74125;BME280;62475;52.192;5.396;2022-08-19T03:02:04;101485.16;;;16.84;96.73
74125;BME280;62475;52.192;5.396;2022-08-19T03:04:30;101487.38;;;16.73;97.63
74125;BME280;62475;52.192;5.396;2022-08-19T03:06:55;101483.13;;;16.67;97.53
74125;BME280;62475;52.192;5.396;2022-08-19T03:09:20;101473.16;;;16.66;97.38
74125;BME280;62475;52.192;5.396;2022-08-19T03:11:46;101477.31;;;16.86;96.91
74125;BME280;62475;52.192;5.396;2022-08-19T03:14:12;101475.53;;;16.81;97.04
74125;BME280;62475;52.192;5.396;2022-08-19T03:16:45;101467.97;;;16.73;98.23
74125;BME280;62475;52.192;5.396;2022-08-19T03:19:12;101466.66;;;16.71;98.13
74125;BME280;62475;52.192;5.396;2022-08-19T03:21:38;101458.44;;;16.57;97.92
74125;BME280;62475;52.192;5.396;2022-08-19T03:24:07;101450.56;;;16.51;98.38
74125;BME280;62475;52.192;5.396;2022-08-19T03:26:33;101461.34;;;16.52;98.81
74125;BME280;62475;52.192;5.396;2022-08-19T03:29:04;101459.94;;;16.41;99.15
74125;BME280;62475;52.192;5.396;2022-08-19T03:31:29;101462.53;;;16.38;99.69
74125;BME280;62475;52.192;5.396;2022-08-19T03:33:56;101466.94;;;16.39;99.96
74125;BME280;62475;52.192;5.396;2022-08-19T03:36:24;101462.69;;;16.33;99.33
74125;BME280;62475;52.192;5.396;2022-08-19T03:38:55;101468.91;;;16.38;98.93
74125;BME280;62475;52.192;5.396;2022-08-19T03:41:24;101455.63;;;16.27;99.46
74125;BME280;62475;52.192;5.396;2022-08-19T03:43:50;101454.97;;;16.30;98.87
74125;BME280;62475;52.192;5.396;2022-08-19T03:46:19;101461.41;;;16.39;98.16
74125;BME280;62475;52.192;5.396;2022-08-19T03:48:46;101462.63;;;16.46;98.87
74125;BME280;62475;52.192;5.396;2022-08-19T03:51:22;101463.66;;;16.37;99.59
74125;BME280;62475;52.192;5.396;2022-08-19T03:53:47;101470.88;;;16.38;99.35
74125;BME280;62475;52.192;5.396;2022-08-19T03:56:14;101459.34;;;16.22;99.77
74125;BME280;62475;52.192;5.396;2022-08-19T03:58:40;101457.03;;;16.16;99.59
74125;BME280;62475;52.192;5.396;2022-08-19T04:01:12;101454.88;;;16.13;100.00
74125;BME280;62475;52.192;5.396;2022-08-19T04:03:39;101451.13;;;16.09;100.00
74125;BME280;62475;52.192;5.396;2022-08-19T04:09:09;101452.81;;;15.96;100.00
74125;BME280;62475;52.192;5.396;2022-08-19T04:11:38;101463.91;;;15.96;100.00
74125;BME280;62475;52.192;5.396;2022-08-19T04:14:07;101449.09;;;16.01;100.00
74125;BME280;62475;52.192;5.396;2022-08-19T04:16:33;101440.06;;;15.95;100.00
74125;BME280;62475;52.192;5.396;2022-08-19T04:19:03;101451.44;;;16.07;100.00
74125;BME280;62475;52.192;5.396;2022-08-19T04:21:30;101447.84;;;16.07;100.00
74125;BME280;62475;52.192;5.396;2022-08-19T04:23:56;101445.00;;;15.98;100.00
74125;BME280;62475;52.192;5.396;2022-08-19T04:26:31;101447.28;;;15.96;100.00
74125;BME280;62475;52.192;5.396;2022-08-19T04:29:00;101443.47;;;15.92;100.00
74125;BME280;62475;52.192;5.396;2022-08-19T04:31:28;101440.13;;;15.81;100.00
74125;BME280;62475;52.192;5.396;2022-08-19T04:33:58;101448.13;;;15.83;100.00
74125;BME280;62475;52.192;5.396;2022-08-19T04:36:27;101450.91;;;15.83;100.00
74125;BME280;62475;52.192;5.396;2022-08-19T04:38:56;101454.88;;;15.90;100.00
74125;BME280;62475;52.192;5.396;2022-08-19T04:41:22;101440.66;;;15.83;100.00
74125;BME280;62475;52.192;5.396;2022-08-19T04:44:06;101452.06;;;15.82;100.00
74125;BME280;62475;52.192;5.396;2022-08-19T04:46:32;101430.34;;;15.75;100.00
74125;BME280;62475;52.192;5.396;2022-08-19T04:48:59;101420.81;;;15.68;100.00
74125;BME280;62475;52.192;5.396;2022-08-19T04:51:25;101445.16;;;15.79;100.00
74125;BME280;62475;52.192;5.396;2022-08-19T04:53:50;101439.44;;;15.76;100.00
74125;BME280;62475;52.192;5.396;2022-08-19T04:56:18;101422.53;;;15.77;100.00
74125;BME280;62475;52.192;5.396;2022-08-19T04:58:47;101433.28;;;15.79;100.00
74125;BME280;62475;52.192;5.396;2022-08-19T05:01:22;101444.00;;;15.94;100.00
74125;BME280;62475;52.192;5.396;2022-08-19T05:03:49;101457.03;;;15.93;100.00
74125;BME280;62475;52.192;5.396;2022-08-19T05:06:17;101465.66;;;15.92;100.00
74125;BME280;62475;52.192;5.396;2022-08-19T05:08:44;101465.78;;;15.87;100.00
74125;BME280;62475;52.192;5.396;2022-08-19T05:11:12;101464.47;;;15.84;100.00
74125;BME280;62475;52.192;5.396;2022-08-19T05:13:38;101456.75;;;15.81;100.00
74125;BME280;62475;52.192;5.396;2022-08-19T05:16:04;101471.69;;;15.94;100.00
74125;BME280;62475;52.192;5.396;2022-08-19T05:18:30;101471.88;;;15.98;100.00
74125;BME280;62475;52.192;5.396;2022-08-19T05:21:17;101476.19;;;16.04;100.00
74125;BME280;62475;52.192;5.396;2022-08-19T05:24:01;101463.31;;;16.08;100.00
74125;BME280;62475;52.192;5.396;2022-08-19T05:26:27;101467.47;;;16.19;100.00
74125;BME280;62475;52.192;5.396;2022-08-19T05:28:53;101455.81;;;16.30;100.00
74125;BME280;62475;52.192;5.396;2022-08-19T05:31:18;101466.16;;;16.38;100.00
74125;BME280;62475;52.192;5.396;2022-08-19T05:33:44;101468.53;;;16.53;100.00
74125;BME280;62475;52.192;5.396;2022-08-19T05:36:09;101467.97;;;16.73;99.21
74125;BME280;62475;52.192;5.396;2022-08-19T05:38:35;101450.31;;;16.61;99.15
74125;BME280;62475;52.192;5.396;2022-08-19T05:41:12;101470.94;;;16.85;98.93
74125;BME280;62475;52.192;5.396;2022-08-19T05:43:38;101463.97;;;16.96;98.97
74125;BME280;62475;52.192;5.396;2022-08-19T05:46:05;101461.84;;;16.93;98.75
74125;BME280;62475;52.192;5.396;2022-08-19T05:48:32;101460.09;;;17.06;98.90
74125;BME280;62475;52.192;5.396;2022-08-19T05:50:57;101447.22;;;17.19;98.62
74125;BME280;62475;52.192;5.396;2022-08-19T05:53:24;101456.41;;;17.45;97.15
74125;BME280;62475;52.192;5.396;2022-08-19T05:55:49;101467.44;;;17.67;97.05
74125;BME280;62475;52.192;5.396;2022-08-19T05:58:15;101471.34;;;17.66;96.37
74125;BME280;62475;52.192;5.396;2022-08-19T06:00:43;101471.50;;;17.78;96.59
74125;BME280;62475;52.192;5.396;2022-08-19T06:03:08;101452.88;;;17.87;96.23
74125;BME280;62475;52.192;5.396;2022-08-19T06:05:35;101464.97;;;18.08;96.33
74125;BME280;62475;52.192;5.396;2022-08-19T06:08:00;101469.38;;;18.09;95.98
74125;BME280;62475;52.192;5.396;2022-08-19T06:10:25;101474.28;;;18.21;95.73
74125;BME280;62475;52.192;5.396;2022-08-19T06:12:51;101469.19;;;18.31;94.68
74125;BME280;62475;52.192;5.396;2022-08-19T06:15:17;101452.31;;;18.45;95.26
74125;BME280;62475;52.192;5.396;2022-08-19T06:17:42;101451.41;;;18.70;93.54
74125;BME280;62475;52.192;5.396;2022-08-19T06:20:11;101463.66;;;18.77;94.01
74125;BME280;62475;52.192;5.396;2022-08-19T06:22:43;101462.19;;;18.71;93.64
74125;BME280;62475;52.192;5.396;2022-08-19T06:25:10;101465.63;;;19.14;92.83
74125;BME280;62475;52.192;5.396;2022-08-19T06:27:36;101459.44;;;19.38;91.20
74125;BME280;62475;52.192;5.396;2022-08-19T06:30:03;101456.19;;;19.57;90.54
74125;BME280;62475;52.192;5.396;2022-08-19T06:32:28;101461.94;;;19.31;90.88
74125;BME280;62475;52.192;5.396;2022-08-19T06:34:53;101442.72;;;19.09;91.34
74125;BME280;62475;52.192;5.396;2022-08-19T06:37:19;101463.41;;;19.58;91.12
74125;BME280;62475;52.192;5.396;2022-08-19T06:39:47;101469.66;;;19.75;89.00
74125;BME280;62475;52.192;5.396;2022-08-19T06:42:12;101467.88;;;19.50;88.86
74125;BME280;62475;52.192;5.396;2022-08-19T06:44:42;101471.69;;;19.87;89.92
74125;BME280;62475;52.192;5.396;2022-08-19T06:47:10;101460.00;;;19.73;89.54
74125;BME280;62475;52.192;5.396;2022-08-19T06:49:35;101471.13;;;19.52;90.60
74125;BME280;62475;52.192;5.396;2022-08-19T06:52:01;101472.88;;;19.36;90.10
74125;BME280;62475;52.192;5.396;2022-08-19T06:54:28;101464.88;;;19.26;91.96
74125;BME280;62475;52.192;5.396;2022-08-19T06:56:57;101469.97;;;19.24;91.06
74125;BME280;62475;52.192;5.396;2022-08-19T06:59:24;101468.34;;;19.23;91.72
74125;BME280;62475;52.192;5.396;2022-08-19T07:01:55;101477.78;;;19.01;92.02
74125;BME280;62475;52.192;5.396;2022-08-19T07:04:26;101474.47;;;19.08;92.33
74125;BME280;62475;52.192;5.396;2022-08-19T07:07:01;101468.16;;;18.90;93.03
74125;BME280;62475;52.192;5.396;2022-08-19T07:09:27;101477.06;;;18.84;93.02
74125;BME280;62475;52.192;5.396;2022-08-19T07:11:53;101486.72;;;18.86;93.53
74125;BME280;62475;52.192;5.396;2022-08-19T07:14:23;101484.22;;;18.93;93.23
74125;BME280;62475;52.192;5.396;2022-08-19T07:16:51;101487.59;;;19.07;93.20
74125;BME280;62475;52.192;5.396;2022-08-19T07:19:17;101486.44;;;19.08;92.13
74125;BME280;62475;52.192;5.396;2022-08-19T07:21:43;101494.25;;;19.15;92.92
74125;BME280;62475;52.192;5.396;2022-08-19T07:24:08;101495.88;;;19.24;92.55
74125;BME280;62475;52.192;5.396;2022-08-19T07:26:38;101487.84;;;19.32;91.60
74125;BME280;62475;52.192;5.396;2022-08-19T07:29:05;101491.38;;;19.03;91.84
74125;BME280;62475;52.192;5.396;2022-08-19T07:31:30;101494.31;;;19.06;92.68
74125;BME280;62475;52.192;5.396;2022-08-19T07:33:56;101479.84;;;19.13;92.90
74125;BME280;62475;52.192;5.396;2022-08-19T07:36:25;101493.63;;;19.47;90.94
74125;BME280;62475;52.192;5.396;2022-08-19T07:38:55;101479.91;;;19.42;90.59
74125;BME280;62475;52.192;5.396;2022-08-19T07:41:23;101488.25;;;19.42;90.15
74125;BME280;62475;52.192;5.396;2022-08-19T07:43:49;101494.91;;;19.20;90.69
74125;BME280;62475;52.192;5.396;2022-08-19T07:46:15;101488.84;;;19.18;91.42
74125;BME280;62475;52.192;5.396;2022-08-19T07:48:43;101495.78;;;19.42;91.44
74125;BME280;62475;52.192;5.396;2022-08-19T07:51:17;101497.09;;;19.44;90.56
74125;BME280;62475;52.192;5.396;2022-08-19T07:53:44;101503.75;;;19.52;90.36
74125;BME280;62475;52.192;5.396;2022-08-19T07:56:11;101493.50;;;19.44;90.28
74125;BME280;62475;52.192;5.396;2022-08-19T07:58:40;101507.72;;;19.51;91.02
74125;BME280;62475;52.192;5.396;2022-08-19T08:01:08;101516.41;;;19.49;90.09
74125;BME280;62475;52.192;5.396;2022-08-19T08:03:35;101484.72;;;19.33;89.86
74125;BME280;62475;52.192;5.396;2022-08-19T08:06:19;101507.44;;;19.44;90.59
74125;BME280;62475;52.192;5.396;2022-08-19T08:09:04;101472.38;;;19.05;90.82
74125;BME280;62475;52.192;5.396;2022-08-19T08:11:51;101508.91;;;19.41;90.10
74125;BME280;62475;52.192;5.396;2022-08-19T08:14:25;101522.06;;;19.32;89.63
74125;BME280;62475;52.192;5.396;2022-08-19T08:16:52;101514.13;;;19.43;90.02
74125;BME280;62475;52.192;5.396;2022-08-19T08:19:22;101532.66;;;19.47;89.61
74125;BME280;62475;52.192;5.396;2022-08-19T08:21:49;101536.72;;;19.50;89.71
74125;BME280;62475;52.192;5.396;2022-08-19T08:24:15;101532.25;;;19.57;90.05
74125;BME280;62475;52.192;5.396;2022-08-19T08:26:42;101529.78;;;19.35;89.32
74125;BME280;62475;52.192;5.396;2022-08-19T08:29:09;101528.63;;;19.57;89.16
74125;BME280;62475;52.192;5.396;2022-08-19T08:31:35;101538.44;;;19.63;89.14
74125;BME280;62475;52.192;5.396;2022-08-19T08:34:01;101538.44;;;19.63;88.43
74125;BME280;62475;52.192;5.396;2022-08-19T08:36:26;101550.25;;;19.89;88.06
74125;BME280;62475;52.192;5.396;2022-08-19T08:38:52;101541.66;;;20.14;85.43
74125;BME280;62475;52.192;5.396;2022-08-19T08:41:31;101531.84;;;20.17;84.66
74125;BME280;62475;52.192;5.396;2022-08-19T08:44:00;101554.13;;;20.38;84.24
74125;BME280;62475;52.192;5.396;2022-08-19T08:46:44;101541.13;;;20.42;83.22
74125;BME280;62475;52.192;5.396;2022-08-19T08:49:36;101547.25;;;20.35;83.20
74125;BME280;62475;52.192;5.396;2022-08-19T08:52:10;101547.25;;;20.35;82.84
74125;BME280;62475;52.192;5.396;2022-08-19T08:54:42;101531.41;;;20.06;82.83
74125;BME280;62475;52.192;5.396;2022-08-19T08:57:15;101550.25;;;20.30;83.56
74125;BME280;62475;52.192;5.396;2022-08-19T08:59:45;101546.56;;;20.38;82.99
74125;BME280;62475;52.192;5.396;2022-08-19T09:02:13;101543.06;;;20.62;81.91
74125;BME280;62475;52.192;5.396;2022-08-19T09:04:39;101534.25;;;20.84;82.34
74125;BME280;62475;52.192;5.396;2022-08-19T09:09:46;101534.25;;;21.40;77.93
74125;BME280;62475;52.192;5.396;2022-08-19T09:12:37;101540.84;;;21.60;76.80
74125;BME280;62475;52.192;5.396;2022-08-19T09:15:07;101550.31;;;21.80;75.93
74125;BME280;62475;52.192;5.396;2022-08-19T09:17:33;101558.00;;;21.59;77.44
74125;BME280;62475;52.192;5.396;2022-08-19T09:20:06;101556.38;;;21.58;77.88
74125;BME280;62475;52.192;5.396;2022-08-19T09:22:33;101552.63;;;21.54;76.19
74125;BME280;62475;52.192;5.396;2022-08-19T09:24:59;101528.06;;;21.35;76.11
74125;BME280;62475;52.192;5.396;2022-08-19T09:27:26;101528.66;;;21.53;76.20
74125;BME280;62475;52.192;5.396;2022-08-19T09:29:52;101543.75;;;21.88;76.11
74125;BME280;62475;52.192;5.396;2022-08-19T09:32:19;101545.88;;;21.91;76.89
74125;BME280;62475;52.192;5.396;2022-08-19T09:34:45;101554.44;;;22.10;74.76
74125;BME280;62475;52.192;5.396;2022-08-19T09:37:10;101536.50;;;21.99;75.56
74125;BME280;62475;52.192;5.396;2022-08-19T09:39:37;101551.31;;;21.99;75.92
74125;BME280;62475;52.192;5.396;2022-08-19T09:42:02;101536.31;;;21.80;75.49
74125;BME280;62475;52.192;5.396;2022-08-19T09:44:28;101559.25;;;21.97;75.74
74125;BME280;62475;52.192;5.396;2022-08-19T09:46:54;101556.28;;;22.18;75.05
74125;BME280;62475;52.192;5.396;2022-08-19T09:49:20;101551.66;;;22.10;75.13
74125;BME280;62475;52.192;5.396;2022-08-19T09:51:50;101553.97;;;22.08;73.39
74125;BME280;62475;52.192;5.396;2022-08-19T09:54:16;101554.56;;;22.13;74.40
74125;BME280;62475;52.192;5.396;2022-08-19T09:56:41;101553.00;;;22.16;75.36
74125;BME280;62475;52.192;5.396;2022-08-19T09:59:06;101531.22;;;22.09;75.57
74125;BME280;62475;52.192;5.396;2022-08-19T10:01:33;101556.50;;;22.52;72.42
74125;BME280;62475;52.192;5.396;2022-08-19T10:04:00;101561.34;;;22.68;71.20
74125;BME280;62475;52.192;5.396;2022-08-19T10:06:28;101550.34;;;22.90;70.98
74125;BME280;62475;52.192;5.396;2022-08-19T10:08:58;101553.03;;;22.71;70.33
74125;BME280;62475;52.192;5.396;2022-08-19T10:11:25;101555.88;;;22.31;71.28
74125;BME280;62475;52.192;5.396;2022-08-19T10:13:51;101526.25;;;22.03;71.99
74125;BME280;62475;52.192;5.396;2022-08-19T10:16:20;101558.81;;;22.50;73.57
74125;BME280;62475;52.192;5.396;2022-08-19T10:18:47;101551.69;;;22.65;72.72
74125;BME280;62475;52.192;5.396;2022-08-19T10:21:20;101549.50;;;22.59;71.06
74125;BME280;62475;52.192;5.396;2022-08-19T10:23:48;101553.81;;;22.99;69.94
74125;BME280;62475;52.192;5.396;2022-08-19T10:26:19;101541.91;;;23.33;68.02
74125;BME280;62475;52.192;5.396;2022-08-19T10:28:44;101543.78;;;23.95;64.66
74125;BME280;62475;52.192;5.396;2022-08-19T10:31:14;101535.31;;;24.11;65.39
74125;BME280;62475;52.192;5.396;2022-08-19T10:33:40;101538.88;;;24.46;63.83
74125;BME280;62475;52.192;5.396;2022-08-19T10:36:09;101533.56;;;24.03;64.96
74125;BME280;62475;52.192;5.396;2022-08-19T10:38:36;101536.13;;;24.11;64.11
74125;BME280;62475;52.192;5.396;2022-08-19T10:41:19;101534.03;;;24.85;63.67
74125;BME280;62475;52.192;5.396;2022-08-19T10:43:47;101528.22;;;24.74;62.54
74125;BME280;62475;52.192;5.396;2022-08-19T10:46:15;101532.34;;;25.25;61.80
74125;BME280;62475;52.192;5.396;2022-08-19T10:48:42;101534.16;;;25.37;62.17
74125;BME280;62475;52.192;5.396;2022-08-19T10:51:08;101538.44;;;25.31;60.39
74125;BME280;62475;52.192;5.396;2022-08-19T10:53:52;101517.03;;;25.45;60.75
74125;BME280;62475;52.192;5.396;2022-08-19T10:56:18;101524.97;;;24.72;63.63
74125;BME280;62475;52.192;5.396;2022-08-19T10:59:03;101529.28;;;25.11;63.99
74125;BME280;62475;52.192;5.396;2022-08-19T11:01:29;101529.41;;;25.41;61.83
74125;BME280;62475;52.192;5.396;2022-08-19T11:03:56;101515.56;;;25.55;61.20
74125;BME280;62475;52.192;5.396;2022-08-19T11:06:23;101511.75;;;25.44;59.97
74125;BME280;62475;52.192;5.396;2022-08-19T11:08:50;101507.97;;;25.10;63.92
74125;BME280;62475;52.192;5.396;2022-08-19T11:11:15;101516.91;;;25.38;63.38
74125;BME280;62475;52.192;5.396;2022-08-19T11:13:41;101512.13;;;25.42;61.25
74125;BME280;62475;52.192;5.396;2022-08-19T11:16:17;101507.31;;;25.69;61.54
74125;BME280;62475;52.192;5.396;2022-08-19T11:18:46;101507.28;;;25.65;60.10
74125;BME280;62475;52.192;5.396;2022-08-19T11:21:15;101500.34;;;25.89;60.82
74125;BME280;62475;52.192;5.396;2022-08-19T11:23:45;101507.72;;;25.41;61.83
74125;BME280;62475;52.192;5.396;2022-08-19T11:26:11;101498.91;;;25.20;60.36
74125;BME280;62475;52.192;5.396;2022-08-19T11:28:37;101499.41;;;25.26;63.38
74125;BME280;62475;52.192;5.396;2022-08-19T11:31:04;101496.53;;;25.45;62.61
74125;BME280;62475;52.192;5.396;2022-08-19T11:33:30;101500.69;;;25.84;60.63
74125;BME280;62475;52.192;5.396;2022-08-19T11:35:58;101500.41;;;25.93;60.89
74125;BME280;62475;52.192;5.396;2022-08-19T11:38:24;101498.28;;;25.56;63.58
74125;BME280;62475;52.192;5.396;2022-08-19T11:41:00;101497.25;;;25.98;60.89
74125;BME280;62475;52.192;5.396;2022-08-19T11:43:27;101479.56;;;25.67;59.39
74125;BME280;62475;52.192;5.396;2022-08-19T11:45:54;101484.59;;;26.11;60.83
74125;BME280;62475;52.192;5.396;2022-08-19T11:48:20;101495.00;;;26.07;60.23
74125;BME280;62475;52.192;5.396;2022-08-19T11:50:49;101490.66;;;25.57;63.03
74125;BME280;62475;52.192;5.396;2022-08-19T11:53:15;101492.72;;;25.11;63.28
74125;BME280;62475;52.192;5.396;2022-08-19T11:55:41;101502.72;;;25.31;64.02
74125;BME280;62475;52.192;5.396;2022-08-19T11:58:07;101501.84;;;25.79;61.98
74125;BME280;62475;52.192;5.396;2022-08-19T12:00:33;101476.03;;;25.74;63.34
74125;BME280;62475;52.192;5.396;2022-08-19T12:03:01;101485.88;;;25.57;63.09
74125;BME280;62475;52.192;5.396;2022-08-19T12:05:26;101498.84;;;25.17;65.47
74125;BME280;62475;52.192;5.396;2022-08-19T12:07:52;101495.88;;;25.32;64.79
74125;BME280;62475;52.192;5.396;2022-08-19T12:10:19;101498.16;;;25.01;65.08
74125;BME280;62475;52.192;5.396;2022-08-19T12:12:44;101503.78;;;24.78;67.17
74125;BME280;62475;52.192;5.396;2022-08-19T12:15:11;101506.88;;;24.31;68.38
74125;BME280;62475;52.192;5.396;2022-08-19T12:17:37;101520.75;;;24.24;69.14
74125;BME280;62475;52.192;5.396;2022-08-19T12:20:03;101514.91;;;24.14;69.82
74125;BME280;62475;52.192;5.396;2022-08-19T12:22:29;101517.13;;;23.70;72.02
74125;BME280;62475;52.192;5.396;2022-08-19T12:24:54;101524.81;;;23.07;79.21
74125;BME280;62475;52.192;5.396;2022-08-19T12:27:20;101534.28;;;22.32;85.91
74125;BME280;62475;52.192;5.396;2022-08-19T12:29:46;101526.19;;;21.51;91.87
74125;BME280;62475;52.192;5.396;2022-08-19T12:32:11;101541.34;;;21.38;95.05
74125;BME280;62475;52.192;5.396;2022-08-19T12:34:36;101522.13;;;21.12;96.36
74125;BME280;62475;52.192;5.396;2022-08-19T12:37:05;101539.88;;;20.96;96.46
74125;BME280;62475;52.192;5.396;2022-08-19T12:39:38;101538.09;;;20.79;97.03
74125;BME280;62475;52.192;5.396;2022-08-19T12:42:04;101537.88;;;20.84;97.80
74125;BME280;62475;52.192;5.396;2022-08-19T12:44:30;101531.31;;;20.68;98.00
74125;BME280;62475;52.192;5.396;2022-08-19T12:46:57;101542.03;;;20.78;98.24
74125;BME280;62475;52.192;5.396;2022-08-19T12:49:22;101534.00;;;20.65;98.05
74125;BME280;62475;52.192;5.396;2022-08-19T12:51:47;101535.91;;;20.85;97.86
74125;BME280;62475;52.192;5.396;2022-08-19T12:54:13;101540.56;;;20.81;97.40
74125;BME280;62475;52.192;5.396;2022-08-19T12:56:39;101530.78;;;20.87;98.00